createdAt,value
2019-02-04T00:00:36.327Z,1016.45
2019-02-04T00:01:36.331Z,1016.44
2019-02-04T00:02:36.305Z,1016.46
2019-02-04T00:03:36.296Z,1016.46
2019-02-04T00:04:36.290Z,1016.49
2019-02-04T00:05:36.294Z,1016.44
2019-02-04T00:06:36.274Z,1016.48
2019-02-04T00:07:36.252Z,1016.48
2019-02-04T00:08:36.242Z,1016.53
2019-02-04T00:09:36.238Z,1016.42
2019-02-04T00:10:36.228Z,1016.44
2019-02-04T00:11:36.223Z,1016.45
2019-02-04T00:12:36.196Z,1016.49
2019-02-04T00:13:36.184Z,1016.46
2019-02-04T00:14:36.176Z,1016.46
2019-02-04T00:15:36.161Z,1016.45
2019-02-04T00:16:40.943Z,1016.44
2019-02-04T00:17:37.149Z,1016.44
2019-02-04T00:18:36.127Z,1016.40
2019-02-04T00:19:36.120Z,1016.45
2019-02-04T00:20:36.224Z,1016.42
2019-02-04T00:21:36.120Z,1016.41
2019-02-04T00:22:36.093Z,1016.39
2019-02-04T00:23:36.075Z,1016.42
2019-02-04T00:24:36.065Z,1016.44
2019-02-04T00:25:36.060Z,1016.45
2019-02-04T00:26:36.087Z,1016.48
2019-02-04T00:27:36.034Z,1016.43
2019-02-04T00:28:36.033Z,1016.42
2019-02-04T00:29:36.009Z,1016.43
2019-02-04T00:30:36.002Z,1016.47
2019-02-04T00:31:36.027Z,1016.48
2019-02-04T00:32:35.986Z,1016.48
2019-02-04T00:33:35.967Z,1016.51
2019-02-04T00:34:35.958Z,1016.48
2019-02-04T00:35:35.943Z,1016.51
2019-02-04T00:36:35.932Z,1016.52
2019-02-04T00:37:35.940Z,1016.53
2019-02-04T00:38:35.911Z,1016.51
2019-02-04T00:39:35.907Z,1016.51
2019-02-04T00:40:35.901Z,1016.50
2019-02-04T00:41:35.883Z,1016.48
2019-02-04T00:42:35.888Z,1016.47
2019-02-04T00:43:35.854Z,1016.47
2019-02-04T00:44:35.845Z,1016.46
2019-02-04T00:45:35.832Z,1016.48
2019-02-04T00:46:35.826Z,1016.48
2019-02-04T00:47:35.818Z,1016.42
2019-02-04T00:48:35.803Z,1016.44
2019-02-04T00:49:35.788Z,1016.45
2019-02-04T00:50:35.776Z,1016.48
2019-02-04T00:51:35.767Z,1016.47
2019-02-04T00:52:35.766Z,1016.45
2019-02-04T00:53:35.741Z,1016.50
2019-02-04T00:54:35.732Z,1016.50
2019-02-04T00:55:35.724Z,1016.48
2019-02-04T00:56:35.712Z,1016.51
2019-02-04T00:57:35.716Z,1016.54
2019-02-04T00:58:35.688Z,1016.53
2019-02-04T00:59:35.682Z,1016.52
2019-02-04T01:00:35.664Z,1016.54
2019-02-04T01:01:35.664Z,1016.56
2019-02-04T01:02:35.672Z,1016.58
2019-02-04T01:03:35.631Z,1016.55
2019-02-04T01:04:35.622Z,1016.54
2019-02-04T01:05:35.614Z,1016.57
2019-02-04T01:06:35.607Z,1016.58
2019-02-04T01:07:35.587Z,1016.61
2019-02-04T01:08:35.591Z,1016.64
2019-02-04T01:09:35.570Z,1016.65
2019-02-04T01:10:35.556Z,1016.66
2019-02-04T01:11:35.544Z,1016.65
2019-02-04T01:12:35.532Z,1016.65
2019-02-04T01:13:35.539Z,1016.68
2019-02-04T01:14:35.513Z,1016.69
2019-02-04T01:15:35.509Z,1016.68
2019-02-04T01:16:35.488Z,1016.68
2019-02-04T01:17:35.478Z,1016.71
2019-02-04T01:18:35.491Z,1016.67
2019-02-04T01:19:35.477Z,1016.65
2019-02-04T01:20:35.445Z,1016.69
2019-02-04T01:21:35.433Z,1016.67
2019-02-04T01:22:35.426Z,1016.72
2019-02-04T01:23:35.431Z,1016.75
2019-02-04T01:24:35.402Z,1016.71
2019-02-04T01:25:35.393Z,1016.76
2019-02-04T01:26:35.377Z,1016.80
2019-02-04T01:27:35.369Z,1016.75
2019-02-04T01:28:35.382Z,1016.77
2019-02-04T01:29:35.358Z,1016.79
2019-02-04T01:30:35.341Z,1016.75
2019-02-04T01:31:35.324Z,1016.74
2019-02-04T01:32:35.313Z,1016.79
2019-02-04T01:33:35.318Z,1016.79
2019-02-04T01:34:35.297Z,1016.78
2019-02-04T01:35:35.326Z,1016.78
2019-02-04T01:36:35.383Z,1016.83
2019-02-04T01:37:35.261Z,1016.82
2019-02-04T01:38:35.265Z,1016.81
2019-02-04T01:39:35.240Z,1016.83
2019-02-04T01:40:35.227Z,1016.82
2019-02-04T01:41:35.215Z,1016.79
2019-02-04T01:42:35.202Z,1016.78
2019-02-04T01:43:35.215Z,1016.82
2019-02-04T01:44:35.182Z,1016.82
2019-02-04T01:45:35.169Z,1016.78
2019-02-04T01:46:35.160Z,1016.82
2019-02-04T01:47:35.155Z,1016.83
2019-02-04T01:48:35.160Z,1016.83
2019-02-04T01:49:35.122Z,1016.84
2019-02-04T01:50:35.111Z,1016.82
2019-02-04T01:51:35.104Z,1016.89
2019-02-04T01:52:35.100Z,1016.86
2019-02-04T01:53:35.110Z,1016.91
2019-02-04T01:54:35.068Z,1016.91
2019-02-04T01:55:35.057Z,1017.00
2019-02-04T01:56:35.048Z,1016.95
2019-02-04T01:57:35.036Z,1017.04
2019-02-04T01:58:35.032Z,1017.06
2019-02-04T01:59:35.029Z,1017.07
2019-02-04T02:00:35.064Z,1017.09
2019-02-04T02:01:34.991Z,1017.01
2019-02-04T02:02:34.980Z,1017.05
2019-02-04T02:03:34.970Z,1016.99
2019-02-04T02:04:34.976Z,1016.98
2019-02-04T02:05:34.947Z,1017.07
2019-02-04T02:06:34.937Z,1017.05
2019-02-04T02:07:34.925Z,1017.03
2019-02-04T02:08:34.917Z,1017.06
2019-02-04T02:09:34.922Z,1017.00
2019-02-04T02:10:34.896Z,1017.09
2019-02-04T02:11:34.885Z,1017.07
2019-02-04T02:12:34.875Z,1017.09
2019-02-04T02:13:34.863Z,1017.08
2019-02-04T02:14:34.873Z,1017.03
2019-02-04T02:15:34.875Z,1017.04
2019-02-04T02:16:34.832Z,1017.02
2019-02-04T02:17:34.824Z,1017.03
2019-02-04T02:18:34.803Z,1017.02
2019-02-04T02:19:34.808Z,1017.02
2019-02-04T02:20:34.787Z,1017.06
2019-02-04T02:21:34.773Z,1017.04
2019-02-04T02:22:34.766Z,1017.04
2019-02-04T02:23:34.758Z,1017.06
2019-02-04T02:24:34.755Z,1017.11
2019-02-04T02:25:34.730Z,1017.13
2019-02-04T02:26:34.725Z,1017.15
2019-02-04T02:27:34.705Z,1017.15
2019-02-04T02:28:34.691Z,1017.16
2019-02-04T02:29:34.695Z,1017.16
2019-02-04T02:30:34.679Z,1017.18
2019-02-04T02:31:34.664Z,1017.17
2019-02-04T02:32:34.670Z,1017.19
2019-02-04T02:33:34.639Z,1017.20
2019-02-04T02:34:34.663Z,1017.19
2019-02-04T02:35:34.616Z,1017.17
2019-02-04T02:36:34.613Z,1017.21
2019-02-04T02:37:34.595Z,1017.22
2019-02-04T02:38:34.600Z,1017.18
2019-02-04T02:39:34.572Z,1017.21
2019-02-04T02:40:34.576Z,1017.18
2019-02-04T02:41:34.551Z,1017.21
2019-02-04T02:42:34.538Z,1017.21
2019-02-04T02:43:34.531Z,1017.16
2019-02-04T02:44:34.532Z,1017.17
2019-02-04T02:45:34.520Z,1017.21
2019-02-04T02:46:34.494Z,1017.16
2019-02-04T02:47:38.335Z,1017.18
2019-02-04T02:48:34.473Z,1017.17
2019-02-04T02:49:34.470Z,1017.17
2019-02-04T02:50:34.468Z,1017.16
2019-02-04T02:51:34.438Z,1017.14
2019-02-04T02:52:34.431Z,1017.17
2019-02-04T02:53:34.418Z,1017.19
2019-02-04T02:54:34.407Z,1017.18
2019-02-04T02:55:34.414Z,1017.23
2019-02-04T02:56:34.401Z,1017.23
2019-02-04T02:57:34.373Z,1017.27
2019-02-04T02:58:34.366Z,1017.27
2019-02-04T02:59:34.352Z,1017.24
2019-02-04T03:00:34.377Z,1017.24
2019-02-04T03:01:34.346Z,1017.26
2019-02-04T03:02:34.316Z,1017.27
2019-02-04T03:03:34.310Z,1017.28
2019-02-04T03:04:34.295Z,1017.24
2019-02-04T03:05:34.300Z,1017.25
2019-02-04T03:06:34.277Z,1017.25
2019-02-04T03:07:34.279Z,1017.23
2019-02-04T03:08:34.249Z,1017.23
2019-02-04T03:09:34.239Z,1017.24
2019-02-04T03:10:34.242Z,1017.30
2019-02-04T03:11:34.220Z,1017.29
2019-02-04T03:12:34.219Z,1017.29
2019-02-04T03:13:34.195Z,1017.25
2019-02-04T03:14:34.189Z,1017.28
2019-02-04T03:15:34.222Z,1017.30
2019-02-04T03:16:34.167Z,1017.31
2019-02-04T03:17:34.163Z,1017.31
2019-02-04T03:18:34.141Z,1017.29
2019-02-04T03:19:34.133Z,1017.26
2019-02-04T03:20:34.118Z,1017.25
2019-02-04T03:21:34.120Z,1017.22
2019-02-04T03:22:34.097Z,1017.27
2019-02-04T03:23:34.088Z,1017.20
2019-02-04T03:24:34.184Z,1017.20
2019-02-04T03:25:34.074Z,1017.19
2019-02-04T03:26:34.091Z,1017.25
2019-02-04T03:27:34.038Z,1017.23
2019-02-04T03:28:34.031Z,1017.26
2019-02-04T03:29:34.032Z,1017.25
2019-02-04T03:30:34.009Z,1017.26
2019-02-04T03:31:34.016Z,1017.29
2019-02-04T03:32:33.994Z,1017.32
2019-02-04T03:33:33.976Z,1017.31
2019-02-04T03:34:33.961Z,1017.34
2019-02-04T03:35:33.953Z,1017.30
2019-02-04T03:36:33.950Z,1017.34
2019-02-04T03:37:33.926Z,1017.36
2019-02-04T03:38:33.915Z,1017.38
2019-02-04T03:39:34.022Z,1017.35
2019-02-04T03:40:33.897Z,1017.41
2019-02-04T03:41:33.896Z,1017.42
2019-02-04T03:42:33.873Z,1017.44
2019-02-04T03:43:33.863Z,1017.53
2019-02-04T03:44:33.849Z,1017.54
2019-02-04T03:45:33.840Z,1017.53
2019-02-04T03:46:33.845Z,1017.55
2019-02-04T03:47:33.815Z,1017.56
2019-02-04T03:48:33.807Z,1017.56
2019-02-04T03:49:33.818Z,1017.57
2019-02-04T03:50:33.787Z,1017.58
2019-02-04T03:51:33.783Z,1017.61
2019-02-04T03:52:33.763Z,1017.60
2019-02-04T03:53:33.755Z,1017.57
2019-02-04T03:54:33.739Z,1017.60
2019-02-04T03:55:33.728Z,1017.55
2019-02-04T03:56:33.728Z,1017.54
2019-02-04T03:57:33.705Z,1017.57
2019-02-04T03:58:33.693Z,1017.54
2019-02-04T03:59:33.689Z,1017.53
2019-02-04T04:00:33.673Z,1017.51
2019-02-04T04:01:33.679Z,1017.51
2019-02-04T04:02:33.649Z,1017.52
2019-02-04T04:03:33.640Z,1017.60
2019-02-04T04:04:33.631Z,1017.61
2019-02-04T04:05:33.617Z,1017.56
2019-02-04T04:06:33.619Z,1017.56
2019-02-04T04:07:33.598Z,1017.50
2019-02-04T04:08:33.589Z,1017.51
2019-02-04T04:09:33.582Z,1017.53
2019-02-04T04:10:33.563Z,1017.55
2019-02-04T04:11:33.570Z,1017.56
2019-02-04T04:12:33.543Z,1017.53
2019-02-04T04:13:33.530Z,1017.60
2019-02-04T04:14:33.516Z,1017.52
2019-02-04T04:15:33.505Z,1017.55
2019-02-04T04:16:33.495Z,1017.49
2019-02-04T04:17:33.492Z,1017.51
2019-02-04T04:18:33.482Z,1017.51
2019-02-04T04:19:33.471Z,1017.51
2019-02-04T04:20:33.459Z,1017.51
2019-02-04T04:21:33.439Z,1017.54
2019-02-04T04:22:33.443Z,1017.51
2019-02-04T04:23:33.420Z,1017.46
2019-02-04T04:24:33.405Z,1017.49
2019-02-04T04:25:33.397Z,1017.50
2019-02-04T04:26:33.387Z,1017.53
2019-02-04T04:27:33.393Z,1017.58
2019-02-04T04:28:33.361Z,1017.57
2019-02-04T04:29:33.360Z,1017.63
2019-02-04T04:30:33.340Z,1017.53
2019-02-04T04:31:33.330Z,1017.55
2019-02-04T04:32:33.331Z,1017.60
2019-02-04T04:33:33.317Z,1017.57
2019-02-04T04:34:33.297Z,1017.50
2019-02-04T04:35:33.290Z,1017.49
2019-02-04T04:36:33.286Z,1017.52
2019-02-04T04:37:33.282Z,1017.55
2019-02-04T04:38:33.254Z,1017.51
2019-02-04T04:39:33.242Z,1017.50
2019-02-04T04:40:33.233Z,1017.52
2019-02-04T04:41:33.221Z,1017.56
2019-02-04T04:42:33.237Z,1017.56
2019-02-04T04:43:33.199Z,1017.61
2019-02-04T04:44:33.192Z,1017.62
2019-02-04T04:45:33.179Z,1017.62
2019-02-04T04:46:33.167Z,1017.63
2019-02-04T04:47:33.185Z,1017.64
2019-02-04T04:48:33.145Z,1017.68
2019-02-04T04:49:33.139Z,1017.71
2019-02-04T04:50:33.123Z,1017.67
2019-02-04T04:51:33.114Z,1017.70
2019-02-04T04:52:33.121Z,1017.69
2019-02-04T04:53:33.097Z,1017.68
2019-02-04T04:54:33.091Z,1017.64
2019-02-04T04:55:33.070Z,1017.64
2019-02-04T04:56:33.062Z,1017.66
2019-02-04T04:57:33.141Z,1017.69
2019-02-04T04:58:33.069Z,1017.71
2019-02-04T04:59:33.030Z,1017.78
2019-02-04T05:00:33.031Z,1017.81
2019-02-04T05:01:33.006Z,1017.80
2019-02-04T05:02:32.994Z,1017.79
2019-02-04T05:03:32.999Z,1017.77
2019-02-04T05:04:32.976Z,1017.75
2019-02-04T05:05:32.972Z,1017.74
2019-02-04T05:06:32.952Z,1017.81
2019-02-04T05:07:32.940Z,1017.87
2019-02-04T05:08:32.943Z,1017.84
2019-02-04T05:09:32.940Z,1017.86
2019-02-04T05:10:32.909Z,1017.85
2019-02-04T05:11:32.897Z,1017.88
2019-02-04T05:12:32.897Z,1017.90
2019-02-04T05:13:32.885Z,1017.91
2019-02-04T05:14:32.863Z,1017.87
2019-02-04T05:15:32.856Z,1017.88
2019-02-04T05:16:32.842Z,1017.91
2019-02-04T05:17:32.832Z,1017.89
2019-02-04T05:18:38.139Z,1017.87
2019-02-04T05:19:33.899Z,1017.89
2019-02-04T05:20:32.805Z,1017.92
2019-02-04T05:21:32.789Z,1017.89
2019-02-04T05:22:32.778Z,1017.87
2019-02-04T05:23:32.785Z,1017.91
2019-02-04T05:24:32.757Z,1017.89
2019-02-04T05:25:32.745Z,1017.90
2019-02-04T05:26:32.745Z,1017.91
2019-02-04T05:27:32.724Z,1017.90
2019-02-04T05:28:32.722Z,1017.89
2019-02-04T05:29:32.701Z,1017.85
2019-02-04T05:30:32.691Z,1017.84
2019-02-04T05:31:32.693Z,1017.84
2019-02-04T05:32:32.673Z,1017.83
2019-02-04T05:33:32.679Z,1017.86
2019-02-04T05:34:32.650Z,1017.87
2019-02-04T05:35:32.639Z,1017.91
2019-02-04T05:36:32.627Z,1017.88
2019-02-04T05:37:32.620Z,1017.92
2019-02-04T05:38:32.624Z,1017.94
2019-02-04T05:39:32.595Z,1017.92
2019-02-04T05:40:32.582Z,1017.95
2019-02-04T05:41:32.573Z,1017.98
2019-02-04T05:42:34.566Z,1017.97
2019-02-04T05:43:32.581Z,1017.96
2019-02-04T05:44:32.541Z,1018.01
2019-02-04T05:45:32.535Z,1018.00
2019-02-04T05:46:32.518Z,1018.00
2019-02-04T05:47:32.507Z,1018.02
2019-02-04T05:48:32.498Z,1018.02
2019-02-04T05:49:32.611Z,1018.03
2019-02-04T05:50:32.478Z,1018.02
2019-02-04T05:51:32.467Z,1018.00
2019-02-04T05:52:32.454Z,1017.97
2019-02-04T05:53:32.464Z,1017.93
2019-02-04T05:54:32.453Z,1017.91
2019-02-04T05:55:32.422Z,1017.89
2019-02-04T05:56:32.409Z,1017.85
2019-02-04T05:57:32.400Z,1017.88
2019-02-04T05:58:33.083Z,1017.83
2019-02-04T05:59:32.399Z,1017.81
2019-02-04T06:00:32.368Z,1017.78
2019-02-04T06:01:32.355Z,1017.73
2019-02-04T06:02:32.346Z,1017.70
2019-02-04T06:03:32.335Z,1017.71
2019-02-04T06:04:32.333Z,1017.69
2019-02-04T06:05:32.314Z,1017.66
2019-02-04T06:06:32.301Z,1017.67
2019-02-04T06:07:32.294Z,1017.68
2019-02-04T06:08:32.281Z,1017.61
2019-02-04T06:09:32.287Z,1017.58
2019-02-04T06:10:32.257Z,1017.60
2019-02-04T06:11:32.247Z,1017.57
2019-02-04T06:12:34.894Z,1017.56
2019-02-04T06:13:32.225Z,1017.55
2019-02-04T06:14:32.225Z,1017.55
2019-02-04T06:15:32.205Z,1017.50
2019-02-04T06:16:32.208Z,1017.57
2019-02-04T06:17:32.181Z,1017.59
2019-02-04T06:18:32.187Z,1017.58
2019-02-04T06:19:32.171Z,1017.56
2019-02-04T06:20:32.152Z,1017.59
2019-02-04T06:21:32.150Z,1017.61
2019-02-04T06:22:32.129Z,1017.59
2019-02-04T06:23:32.126Z,1017.56
2019-02-04T06:24:32.123Z,1017.59
2019-02-04T06:25:32.097Z,1017.61
2019-02-04T06:26:32.089Z,1017.61
2019-02-04T06:27:32.075Z,1017.65
2019-02-04T06:28:32.102Z,1017.62
2019-02-04T06:29:32.082Z,1017.69
2019-02-04T06:30:32.043Z,1017.72
2019-02-04T06:31:32.035Z,1017.76
2019-02-04T06:32:34.502Z,1017.75
2019-02-04T06:33:32.011Z,1017.78
2019-02-04T06:34:32.001Z,1017.84
2019-02-04T06:35:31.997Z,1017.80
2019-02-04T06:36:31.976Z,1017.78
2019-02-04T06:37:31.966Z,1017.78
2019-02-04T06:38:31.961Z,1017.80
2019-02-04T06:39:31.944Z,1017.77
2019-02-04T06:40:31.967Z,1017.77
2019-02-04T06:41:31.923Z,1017.78
2019-02-04T06:42:31.917Z,1017.72
2019-02-04T06:43:31.903Z,1017.80
2019-02-04T06:44:31.894Z,1017.81
2019-02-04T06:45:31.891Z,1017.82
2019-02-04T06:46:31.876Z,1017.85
2019-02-04T06:47:31.874Z,1017.82
2019-02-04T06:48:31.863Z,1017.84
2019-02-04T06:49:31.834Z,1017.84
2019-02-04T06:50:31.833Z,1017.86
2019-02-04T06:51:31.818Z,1017.85
2019-02-04T06:52:31.806Z,1017.85
2019-02-04T06:53:31.796Z,1017.90
2019-02-04T06:54:31.782Z,1017.92
2019-02-04T06:55:31.795Z,1017.91
2019-02-04T06:56:31.768Z,1017.95
2019-02-04T06:57:31.750Z,1017.95
2019-02-04T06:58:31.748Z,1017.96
2019-02-04T06:59:31.729Z,1017.98
2019-02-04T07:00:31.740Z,1018.04
2019-02-04T07:01:31.707Z,1018.02
2019-02-04T07:02:31.696Z,1018.05
2019-02-04T07:03:31.690Z,1018.04
2019-02-04T07:04:31.682Z,1018.04
2019-02-04T07:05:43.147Z,1018.07
2019-02-04T07:06:32.661Z,1018.05
2019-02-04T07:07:31.643Z,1018.08
2019-02-04T07:08:31.632Z,1018.06
2019-02-04T07:09:31.620Z,1018.11
2019-02-04T07:10:31.623Z,1018.14
2019-02-04T07:11:31.600Z,1018.20
2019-02-04T07:12:31.589Z,1018.19
2019-02-04T07:13:31.578Z,1018.25
2019-02-04T07:14:31.566Z,1018.24
2019-02-04T07:15:31.565Z,1018.22
2019-02-04T07:16:31.550Z,1018.27
2019-02-04T07:17:31.548Z,1018.32
2019-02-04T07:18:31.525Z,1018.34
2019-02-04T07:19:31.515Z,1018.38
2019-02-04T07:20:31.513Z,1018.38
2019-02-04T07:21:31.491Z,1018.37
2019-02-04T07:22:31.484Z,1018.40
2019-02-04T07:23:31.470Z,1018.42
2019-02-04T07:24:42.109Z,1018.37
2019-02-04T07:25:32.459Z,1018.41
2019-02-04T07:26:31.438Z,1018.43
2019-02-04T07:27:31.429Z,1018.45
2019-02-04T07:28:31.419Z,1018.46
2019-02-04T07:29:31.408Z,1018.47
2019-02-04T07:30:31.408Z,1018.46
2019-02-04T07:31:31.384Z,1018.45
2019-02-04T07:32:31.375Z,1018.45
2019-02-04T07:33:31.360Z,1018.45
2019-02-04T07:34:31.355Z,1018.45
2019-02-04T07:35:31.351Z,1018.48
2019-02-04T07:36:31.338Z,1018.49
2019-02-04T07:37:31.320Z,1018.46
2019-02-04T07:38:31.309Z,1018.50
2019-02-04T07:39:31.294Z,1018.55
2019-02-04T07:40:31.366Z,1018.58
2019-02-04T07:41:31.281Z,1018.55
2019-02-04T07:42:31.282Z,1018.55
2019-02-04T07:43:31.256Z,1018.60
2019-02-04T07:44:31.243Z,1018.63
2019-02-04T07:45:31.244Z,1018.56
2019-02-04T07:46:31.219Z,1018.61
2019-02-04T07:47:31.214Z,1018.59
2019-02-04T07:48:31.216Z,1018.67
2019-02-04T07:49:35.219Z,1018.66
2019-02-04T07:50:31.177Z,1018.71
2019-02-04T07:51:31.177Z,1018.71
2019-02-04T07:52:31.165Z,1018.73
2019-02-04T07:53:31.147Z,1018.73
2019-02-04T07:54:31.134Z,1018.74
2019-02-04T07:55:31.129Z,1018.77
2019-02-04T07:56:31.121Z,1018.75
2019-02-04T07:57:31.101Z,1018.73
2019-02-04T07:58:31.092Z,1018.74
2019-02-04T07:59:31.086Z,1018.77
2019-02-04T08:00:31.073Z,1018.75
2019-02-04T08:01:31.072Z,1018.73
2019-02-04T08:02:31.053Z,1018.72
2019-02-04T08:03:31.036Z,1018.71
2019-02-04T08:04:31.029Z,1018.75
2019-02-04T08:05:31.018Z,1018.73
2019-02-04T08:06:31.043Z,1018.75
2019-02-04T08:07:30.993Z,1018.76
2019-02-04T08:08:32.018Z,1018.78
2019-02-04T08:09:30.970Z,1018.74
2019-02-04T08:10:30.962Z,1018.70
2019-02-04T08:11:30.963Z,1018.71
2019-02-04T08:12:30.939Z,1018.70
2019-02-04T08:13:30.944Z,1018.68
2019-02-04T08:14:30.929Z,1018.66
2019-02-04T08:15:30.908Z,1018.68
2019-02-04T08:16:30.905Z,1018.68
2019-02-04T08:17:30.901Z,1018.63
2019-02-04T08:18:30.874Z,1018.71
2019-02-04T08:19:30.860Z,1018.71
2019-02-04T08:20:30.852Z,1018.68
2019-02-04T08:21:30.856Z,1018.70
2019-02-04T08:22:30.830Z,1018.67
2019-02-04T08:23:30.823Z,1018.61
2019-02-04T08:24:30.817Z,1018.65
2019-02-04T08:25:30.795Z,1018.65
2019-02-04T08:26:30.783Z,1018.59
2019-02-04T08:27:30.789Z,1018.63
2019-02-04T08:28:30.769Z,1018.63
2019-02-04T08:29:30.756Z,1018.54
2019-02-04T08:30:30.742Z,1018.52
2019-02-04T08:31:30.729Z,1018.55
2019-02-04T08:32:30.728Z,1018.53
2019-02-04T08:33:30.705Z,1018.50
2019-02-04T08:34:30.704Z,1018.52
2019-02-04T08:35:30.684Z,1018.52
2019-02-04T08:36:30.676Z,1018.54
2019-02-04T08:37:30.673Z,1018.52
2019-02-04T08:38:30.652Z,1018.55
2019-02-04T08:39:30.643Z,1018.53
2019-02-04T08:40:30.628Z,1018.59
2019-02-04T08:41:30.638Z,1018.60
2019-02-04T08:42:30.626Z,1018.55
2019-02-04T08:43:30.595Z,1018.57
2019-02-04T08:44:30.584Z,1018.59
2019-02-04T08:45:30.575Z,1018.61
2019-02-04T08:46:30.562Z,1018.61
2019-02-04T08:47:30.568Z,1018.63
2019-02-04T08:48:30.538Z,1018.61
2019-02-04T08:49:30.528Z,1018.64
2019-02-04T08:50:30.517Z,1018.68
2019-02-04T08:51:30.511Z,1018.66
2019-02-04T08:52:30.507Z,1018.68
2019-02-04T08:53:30.486Z,1018.65
2019-02-04T08:54:30.472Z,1018.64
2019-02-04T08:55:30.467Z,1018.62
2019-02-04T08:56:30.460Z,1018.64
2019-02-04T08:57:30.460Z,1018.63
2019-02-04T08:58:30.451Z,1018.64
2019-02-04T08:59:30.417Z,1018.66
2019-02-04T09:00:30.407Z,1018.63
2019-02-04T09:01:30.396Z,1018.58
2019-02-04T09:02:30.387Z,1018.60
2019-02-04T09:03:30.387Z,1018.57
2019-02-04T09:04:30.388Z,1018.58
2019-02-04T09:05:30.352Z,1018.58
2019-02-04T09:06:30.341Z,1018.60
2019-02-04T09:07:30.330Z,1018.58
2019-02-04T09:08:30.334Z,1018.49
2019-02-04T09:09:30.313Z,1018.48
2019-02-04T09:10:30.299Z,1018.45
2019-02-04T09:11:30.284Z,1018.46
2019-02-04T09:12:30.281Z,1018.47
2019-02-04T09:13:30.277Z,1018.44
2019-02-04T09:14:30.255Z,1018.46
2019-02-04T09:15:30.244Z,1018.46
2019-02-04T09:16:30.234Z,1018.45
2019-02-04T09:17:30.218Z,1018.45
2019-02-04T09:18:30.218Z,1018.43
2019-02-04T09:19:30.198Z,1018.44
2019-02-04T09:20:30.192Z,1018.45
2019-02-04T09:21:30.175Z,1018.37
2019-02-04T09:22:30.167Z,1018.42
2019-02-04T09:23:30.163Z,1018.42
2019-02-04T09:24:30.144Z,1018.45
2019-02-04T09:25:30.131Z,1018.43
2019-02-04T09:26:30.120Z,1018.47
2019-02-04T09:27:30.111Z,1018.46
2019-02-04T09:28:30.160Z,1018.50
2019-02-04T09:29:30.091Z,1018.52
2019-02-04T09:30:30.094Z,1018.49
2019-02-04T09:31:30.062Z,1018.54
2019-02-04T09:32:30.054Z,1018.50
2019-02-04T09:33:30.075Z,1018.47
2019-02-04T09:34:30.100Z,1018.53
2019-02-04T09:35:30.024Z,1018.57
2019-02-04T09:36:30.013Z,1018.58
2019-02-04T09:37:30.003Z,1018.59
2019-02-04T09:38:30.000Z,1018.68
2019-02-04T09:39:29.976Z,1018.62
2019-02-04T09:40:29.968Z,1018.66
2019-02-04T09:41:29.953Z,1018.64
2019-02-04T09:42:29.944Z,1018.68
2019-02-04T09:43:29.945Z,1018.74
2019-02-04T09:44:29.920Z,1018.67
2019-02-04T09:45:29.910Z,1018.67
2019-02-04T09:46:29.898Z,1018.66
2019-02-04T09:47:29.887Z,1018.72
2019-02-04T09:48:29.891Z,1018.73
2019-02-04T09:49:29.867Z,1018.71
2019-02-04T09:50:32.372Z,1018.74
2019-02-04T09:51:29.843Z,1018.74
2019-02-04T09:52:29.831Z,1018.69
2019-02-04T09:53:29.838Z,1018.66
2019-02-04T09:54:29.812Z,1018.64
2019-02-04T09:55:29.802Z,1018.69
2019-02-04T09:56:29.845Z,1018.65
2019-02-04T09:57:29.784Z,1018.65
2019-02-04T09:58:29.783Z,1018.66
2019-02-04T09:59:29.754Z,1018.63
2019-02-04T10:00:29.743Z,1018.62
2019-02-04T10:01:29.736Z,1018.63
2019-02-04T10:02:29.727Z,1018.63
2019-02-04T10:03:29.737Z,1018.64
2019-02-04T10:04:29.704Z,1018.65
2019-02-04T10:05:29.691Z,1018.63
2019-02-04T10:06:29.675Z,1018.64
2019-02-04T10:07:29.668Z,1018.61
2019-02-04T10:08:29.678Z,1018.58
2019-02-04T10:09:29.646Z,1018.57
2019-02-04T10:10:29.635Z,1018.62
2019-02-04T10:11:29.623Z,1018.51
2019-02-04T10:12:29.611Z,1018.51
2019-02-04T10:13:29.604Z,1018.54
2019-02-04T10:14:29.600Z,1018.59
2019-02-04T10:15:29.603Z,1018.53
2019-02-04T10:16:29.565Z,1018.55
2019-02-04T10:17:29.559Z,1018.51
2019-02-04T10:18:29.560Z,1018.48
2019-02-04T10:19:29.576Z,1018.51
2019-02-04T10:20:33.993Z,1018.48
2019-02-04T10:21:30.551Z,1018.48
2019-02-04T10:22:29.541Z,1018.41
2019-02-04T10:23:29.488Z,1018.50
2019-02-04T10:24:29.532Z,1018.47
2019-02-04T10:25:29.494Z,1018.48
2019-02-04T10:26:29.486Z,1018.44
2019-02-04T10:27:29.451Z,1018.45
2019-02-04T10:28:29.432Z,1018.38
2019-02-04T10:29:29.457Z,1018.40
2019-02-04T10:30:29.454Z,1018.41
2019-02-04T10:31:29.423Z,1018.41
2019-02-04T10:32:29.431Z,1018.41
2019-02-04T10:33:29.383Z,1018.43
2019-02-04T10:34:29.395Z,1018.44
2019-02-04T10:35:29.374Z,1018.34
2019-02-04T10:36:29.380Z,1018.38
2019-02-04T10:37:29.347Z,1018.33
2019-02-04T10:38:29.366Z,1018.29
2019-02-04T10:39:29.340Z,1018.18
2019-02-04T10:40:29.321Z,1018.20
2019-02-04T10:41:29.305Z,1018.15
2019-02-04T10:42:29.296Z,1018.18
2019-02-04T10:43:29.278Z,1018.15
2019-02-04T10:44:29.312Z,1018.14
2019-02-04T10:45:29.291Z,1018.13
2019-02-04T10:46:29.261Z,1018.09
2019-02-04T10:47:29.222Z,1018.05
2019-02-04T10:48:29.251Z,1018.07
2019-02-04T10:49:29.251Z,1018.00
2019-02-04T10:50:29.265Z,1017.95
2019-02-04T10:51:29.212Z,1017.96
2019-02-04T10:52:29.239Z,1017.95
2019-02-04T10:53:29.207Z,1017.91
2019-02-04T10:54:29.189Z,1017.93
2019-02-04T10:55:29.153Z,1017.87
2019-02-04T10:56:29.158Z,1017.86
2019-02-04T10:57:39.361Z,1017.81
2019-02-04T10:58:30.131Z,1017.88
2019-02-04T10:59:29.126Z,1017.87
2019-02-04T11:00:29.092Z,1017.87
2019-02-04T11:01:29.073Z,1017.86
2019-02-04T11:02:29.081Z,1017.84
2019-02-04T11:03:29.078Z,1017.84
2019-02-04T11:04:29.082Z,1017.83
2019-02-04T11:05:29.042Z,1017.82
2019-02-04T11:06:29.014Z,1017.85
2019-02-04T11:07:29.001Z,1017.77
2019-02-04T11:08:29.015Z,1017.84
2019-02-04T11:09:28.986Z,1017.80
2019-02-04T11:10:28.982Z,1017.74
2019-02-04T11:11:28.962Z,1017.78
2019-02-04T11:12:28.983Z,1017.76
2019-02-04T11:13:28.977Z,1017.70
2019-02-04T11:14:28.956Z,1017.65
2019-02-04T11:15:28.937Z,1017.61
2019-02-04T11:16:28.922Z,1017.63
2019-02-04T11:17:28.929Z,1017.57
2019-02-04T11:18:28.882Z,1017.52
2019-02-04T11:19:28.885Z,1017.52
2019-02-04T11:20:28.919Z,1017.53
2019-02-04T11:21:28.863Z,1017.50
2019-02-04T11:22:28.866Z,1017.45
2019-02-04T11:23:29.294Z,1017.44
2019-02-04T11:24:28.855Z,1017.40
2019-02-04T11:25:28.836Z,1017.41
2019-02-04T11:26:28.798Z,1017.40
2019-02-04T11:27:28.798Z,1017.46
2019-02-04T11:28:28.815Z,1017.38
2019-02-04T11:29:28.797Z,1017.38
2019-02-04T11:30:28.774Z,1017.33
2019-02-04T11:31:28.754Z,1017.34
2019-02-04T11:32:28.733Z,1017.32
2019-02-04T11:33:28.750Z,1017.30
2019-02-04T11:34:28.746Z,1017.29
2019-02-04T11:35:28.758Z,1017.26
2019-02-04T11:36:28.715Z,1017.26
2019-02-04T11:37:28.714Z,1017.27
2019-02-04T11:38:28.703Z,1017.23
2019-02-04T11:39:28.657Z,1017.25
2019-02-04T11:40:28.658Z,1017.23
2019-02-04T11:41:28.778Z,1017.18
2019-02-04T11:42:28.641Z,1017.19
2019-02-04T11:43:28.633Z,1017.21
2019-02-04T11:44:28.641Z,1017.23
2019-02-04T11:45:28.602Z,1017.19
2019-02-04T11:46:28.713Z,1017.20
2019-02-04T11:47:28.603Z,1017.16
2019-02-04T11:48:28.553Z,1017.21
2019-02-04T11:49:28.534Z,1017.13
2019-02-04T11:50:28.523Z,1017.10
2019-02-04T11:51:28.521Z,1017.14
2019-02-04T11:52:28.505Z,1017.18
2019-02-04T11:53:32.924Z,1017.18
2019-02-04T11:54:28.485Z,1017.14
2019-02-04T11:55:28.467Z,1017.10
2019-02-04T11:56:28.472Z,1017.15
2019-02-04T11:57:28.453Z,1017.11
2019-02-04T11:58:28.439Z,1017.14
2019-02-04T11:59:28.423Z,1017.11
2019-02-04T12:00:28.412Z,1017.10
2019-02-04T12:01:28.431Z,1017.12
2019-02-04T12:02:34.602Z,1017.07
2019-02-04T12:03:29.378Z,1017.03
2019-02-04T12:04:28.368Z,1017.11
2019-02-04T12:05:28.367Z,1017.07